Latest Weather Observations for Laverton

IDW60801

Issued at 8:05 pm WST Thursday 2 October 2014 (issued every 30 minutes, with the page automatically refreshed every 10 minutes)

About weather observations | Map of weather stations | Latest weather observations for WA | Other Formats
Station Details ID: 012305 Name: LAVERTON AERO Lat: -28.61 Lon: 122.42 Height: 464.3 m
Data from the previous 72 hours. | See also: Recent months at Laverton
Date/Time
WST
Temp
°C
App
Temp
°C
Dew
Point
Rel
Hum
%
Delta-T
°C
Wind Press
QNH
hPa
Press
MSL
hPa
Rain
since 9 am
mm
Dir
 
Spd
km/h
Gust
km/h
Spd
kts
Gust
kts
02/08:00pm 29.0 23.3 3.1 19 13.2 NE 22 32 12 17 1014.4 1012.4 0.0
02/07:30pm 29.3 23.9 2.5 18 13.6 NE 20 24 11 13 1014.2 1012.2 0.0
02/07:00pm 29.4 24.6 2.6 18 13.6 NE 17 22 9 12 1013.7 1011.8 0.0
02/06:30pm 30.7 26.6 2.0 16 14.6 NNE 13 20 7 11 1013.5 1011.6 0.0
02/06:00pm 31.3 26.3 1.6 15 15.0 NNE 17 24 9 13 1013.1 1011.1 0.0
02/05:30pm 31.8 26.5 2.0 15 15.2 NNE 19 33 10 18 1012.9 1010.9 0.0
02/05:00pm 32.4 26.1 1.5 14 15.7 N 24 32 13 17 1013.4 1011.5 0.0
02/04:30pm 32.6 26.3 1.7 14 15.8 NE 24 32 13 17 1013.4 1011.5 0.0
02/04:00pm 33.0 26.4 2.0 14 16.0 NNE 26 39 14 21 1013.4 1011.5 0.0
02/03:30pm 32.5 26.0 2.5 15 15.5 NE 26 33 14 18 1013.8 1011.9 0.0
02/03:00pm 32.3 27.1 2.4 15 15.4 N 19 24 10 13 1014.0 1012.1 0.0
02/02:30pm 33.3 27.9 2.2 14 16.1 NE 20 26 11 14 1014.2 1012.2 0.0
02/02:00pm 31.8 27.3 2.0 15 15.2 ENE 15 24 8 13 1014.6 1012.6 0.0
02/01:30pm 31.9 27.8 2.1 15 15.3 E 13 20 7 11 1015.3 1013.4 0.0
02/01:00pm 31.1 26.2 2.3 16 14.7 ENE 17 22 9 12 1015.8 1013.9 0.0
02/12:30pm 30.4 25.6 2.6 17 14.2 ENE 17 24 9 13 1016.3 1014.4 0.0
02/12:00pm 30.7 24.5 2.0 16 14.5 E 24 32 13 17 1016.6 1014.6 0.0
02/11:30am 29.0 23.7 3.1 19 13.2 ESE 20 24 11 13 1017.6 1015.7 0.0
02/11:00am 27.5 25.2 2.6 20 12.5 E 4 13 2 7 1018.5 1016.6 0.0
02/10:30am 26.6 23.4 3.2 22 11.8 SE 9 15 5 8 1018.4 1016.5 0.0
02/10:00am 25.3 20.9 2.7 23 11.2 SSE 15 20 8 11 1019.0 1017.1 0.0
02/09:30am 24.2 19.1 4.0 27 10.2 SE 20 26 11 14 1018.3 1016.4 0.0
02/09:00am 24.2 18.9 2.9 25 10.5 W 20 28 11 15 1020.4 1018.5 0.0
02/08:30am 24.6 20.7 3.3 25 10.6 N 13 22 7 12 1019.6 1017.7 0.0
02/08:00am 22.7 17.0 2.8 27 9.7 NE 22 30 12 16 1018.3 1016.4 0.0
02/07:30am 21.8 15.7 2.5 28 9.3 NE 24 33 13 18 1018.8 1016.8 0.0
02/07:00am 21.1 13.4 2.4 29 8.9 ENE 32 43 17 23 1017.6 1015.7 0.0
02/06:30am 19.7 11.9 2.6 32 8.1 E 33 43 18 23 1017.3 1015.4 0.0
02/06:00am 19.5 12.6 2.8 33 8.0 E 28 33 15 18 1017.4 1015.5 0.0
02/05:30am 19.6 14.3 2.9 33 8.0 ESE 20 30 11 16 1017.8 1015.9 0.0
02/05:00am 19.9 16.3 3.2 33 8.0 ESE 11 17 6 9 1018.2 1016.3 0.0
02/04:30am 20.0 15.7 3.3 33 8.1 E 15 22 8 12 1018.4 1016.5 0.0
02/04:00am 20.2 14.2 3.4 33 8.1 ENE 24 33 13 18 1018.2 1016.3 0.0
02/03:30am 20.3 15.2 3.9 34 8.0 ENE 20 30 11 16 1018.0 1016.1 0.0
02/03:00am 20.3 13.3 3.9 34 8.0 E 30 43 16 23 1016.9 1014.9 0.0
02/02:30am 20.4 13.8 4.0 34 8.1 ENE 28 37 15 20 1017.9 1016.0 0.0
02/02:00am 20.5 12.6 4.1 34 8.1 E 35 44 19 24 1017.2 1015.3 0.0
02/01:30am 20.6 13.0 3.8 33 8.2 E 33 44 18 24 1017.2 1015.3 0.0
02/01:00am 20.8 13.8 4.0 33 8.3 E 30 39 16 21 1018.3 1016.4 0.0
02/12:30am 20.9 12.9 4.0 33 8.3 E 35 43 19 23 1018.2 1016.3 0.0
02/12:00am 21.4 14.1 4.5 33 8.4 E 32 41 17 22 1018.9 1016.9 0.0
 
Date/Time
WST
Temp
°C
App
Temp
°C
Dew
Point
Rel
Hum
%
Delta-T
°C
Wind Press
QNH
hPa
Press
MSL
hPa
Rain
since 9 am
mm
Dir
 
Spd
km/h
Gust
km/h
Spd
kts
Gust
kts
01/11:30pm 21.5 13.9 4.1 32 8.6 E 33 41 18 22 1019.0 1017.1 0.0
01/11:00pm 22.2 15.2 4.3 31 8.9 E 30 39 16 21 1019.5 1017.6 0.0
01/10:30pm 22.5 16.3 4.1 30 9.2 E 26 33 14 18 1019.8 1017.9 0.0
01/10:00pm 23.1 16.1 4.1 29 9.5 E 30 39 16 21 1019.8 1017.9 0.0
01/09:30pm 23.8 16.6 3.2 26 10.2 E 30 41 16 22 1019.7 1017.8 0.0
01/09:00pm 24.5 17.1 3.8 26 10.4 E 32 39 17 21 1020.0 1018.1 0.0
01/08:30pm 24.7 19.6 3.9 26 10.5 E 20 28 11 15 1020.6 1018.7 0.0
01/08:00pm 25.1 19.3 4.3 26 10.6 E 24 33 13 18 1020.4 1018.5 0.0
01/07:30pm 25.5 20.5 4.6 26 10.7 E 20 28 11 15 1020.3 1018.4 0.0
01/07:00pm 26.2 21.2 4.6 25 11.1 E 20 28 11 15 1020.1 1018.2 0.0
01/06:30pm 26.9 21.8 4.0 23 11.7 ESE 20 28 11 15 1019.7 1017.8 0.0
01/06:00pm 27.4 22.0 2.5 20 12.4 E 20 26 11 14 1019.5 1017.6 0.0
01/05:30pm 28.0 22.2 2.2 19 12.9 E 22 28 12 15 1019.3 1017.4 0.0
01/05:00pm 29.0 22.4 2.3 18 13.4 E 26 37 14 20 1019.0 1017.1 0.0
01/04:30pm 29.7 23.6 2.9 18 13.7 E 24 32 13 17 1018.8 1016.8 0.0
01/04:00pm 29.8 24.1 2.9 18 13.8 E 22 30 12 16 1019.0 1017.1 0.0
01/03:30pm 29.7 23.2 2.9 18 13.7 ESE 26 35 14 19 1019.0 1017.1 0.0
01/03:00pm 28.7 22.7 3.5 20 12.9 E 24 32 13 17 1019.0 1017.1 0.0
01/02:30pm 29.5 23.2 3.5 19 13.4 E 26 32 14 17 1019.3 1017.4 0.0
01/02:00pm 29.3 23.3 3.3 19 13.3 ENE 24 35 13 19 1019.4 1017.5 0.0
01/01:30pm 28.5 22.6 4.1 21 12.7 ENE 24 35 13 19 1019.7 1017.8 0.0
01/01:00pm 29.2 23.1 4.6 21 12.9 ENE 26 35 14 19 1020.2 1018.3 0.0
01/12:30pm 29.1 22.8 5.9 23 12.5 E 28 41 15 22 1020.5 1018.6 0.0
01/12:00pm 28.5 21.3 6.0 24 12.0 E 33 44 18 24 1021.1 1019.2 0.0
01/11:30am 28.5 21.5 6.0 24 12.1 ENE 32 41 17 22 1021.6 1019.7 0.0
01/11:00am 26.9 19.4 6.3 27 11.0 ENE 35 44 19 24 1021.9 1020.0 0.0
01/10:30am 25.5 18.7 6.7 30 10.0 E 32 44 17 24 1022.5 1020.6 0.0
01/10:00am 24.6 17.3 7.3 33 9.2 ENE 35 46 19 25 1022.7 1020.9 0.0
01/09:30am 23.8 15.4 7.4 35 8.8 ENE 41 50 22 27 1023.1 1021.3 0.0
01/09:00am 22.4 13.7 7.8 39 7.8 ENE 43 56 23 30 1023.4 1021.5 0.0
01/08:30am 21.3 13.0 7.9 42 7.1 ENE 41 52 22 28 1023.5 1021.6 0.0
01/08:00am 20.2 12.4 8.2 46 6.4 ENE 39 52 21 28 1023.7 1021.8 0.0
01/07:30am 18.7 10.8 7.8 49 5.7 ENE 39 57 21 31 1023.2 1022.1 0.0
01/07:29am 18.5 10.5 7.6 49 5.7 ENE 39 57 21 31 1023.1 1022.0 0.0
01/07:00am 17.3 9.7 7.6 53 5.0 ENE 37 46 20 25 1023.0 1021.9 0.0
01/06:30am 16.3 8.7 7.5 56 4.5 ENE 37 48 20 26 1022.7 1021.6 0.0
01/06:00am 15.8 8.8 7.0 56 4.4 E 33 41 18 22 1022.7 1021.6 0.0
01/05:30am 15.8 8.4 6.8 55 4.5 E 35 48 19 26 1022.3 1021.1 0.0
01/05:00am 16.1 7.9 6.5 53 4.8 E 39 46 21 25 1021.6 1020.4 0.0
01/04:30am 16.7 8.5 6.5 51 5.1 E 39 50 21 27 1021.5 1020.3 0.0
01/04:00am 17.0 9.5 6.5 50 5.3 E 35 46 19 25 1021.5 1020.3 0.0
01/03:30am 17.1 10.0 6.3 49 5.4 E 33 48 18 26 1021.3 1020.1 0.0
01/03:00am 17.7 9.8 6.3 47 5.7 E 37 48 20 26 1021.1 1019.9 0.0
01/02:30am 18.0 10.5 6.2 46 6.0 E 35 48 19 26 1021.1 1019.9 0.0
01/02:00am 18.3 10.4 6.2 45 6.1 E 37 46 20 25 1021.3 1020.1 0.0
01/01:30am 18.7 10.4 6.2 44 6.3 E 39 56 21 30 1021.3 1020.1 0.0
01/01:23am 18.8 11.3 6.3 44 6.4 E 35 56 19 30 1021.3 1020.1 0.0
01/01:00am 19.0 12.0 6.1 43 6.5 E 32 41 17 22 1022.1 1020.9 0.0
01/12:30am 19.1 12.8 5.9 42 6.7 E 28 35 15 19 1022.4 1021.2 0.0
01/12:00am 19.6 13.3 5.6 40 7.0 E 28 35 15 19 1022.6 1021.5 0.0
 
Date/Time
WST
Temp
°C
App
Temp
°C
Dew
Point
Rel
Hum
%
Delta-T
°C
Wind Press
QNH
hPa
Press
MSL
hPa
Rain
since 9 am
mm
Dir
 
Spd
km/h
Gust
km/h
Spd
kts
Gust
kts
30/11:30pm 20.1 14.6 5.7 39 7.3 E 24 30 13 16 1022.8 1021.7 0.0
30/11:00pm 20.7 14.4 5.5 37 7.7 E 28 33 15 18 1022.7 1021.6 0.0
30/10:30pm 21.3 15.4 5.6 36 8.0 E 26 32 14 17 1022.7 1021.6 0.0
30/10:00pm 22.0 15.3 5.4 34 8.4 E 30 41 16 22 1022.6 1021.5 0.0
30/09:30pm 22.3 15.8 4.8 32 8.8 ESE 28 37 15 20 1022.7 1021.6 0.0
30/09:00pm 22.8 16.6 4.3 30 9.3 ESE 26 35 14 19 1022.7 1021.6 0.0
30/08:30pm 23.4 17.6 4.4 29 9.6 ESE 24 33 13 18 1022.5 1021.4 0.0
30/08:00pm 23.6 18.3 3.0 26 10.1 ESE 20 28 11 15 1022.2 1021.0 0.0
30/07:30pm 24.2 19.8 2.9 25 10.5 ESE 15 19 8 10 1021.9 1020.7 0.0
30/07:00pm 24.9 20.4 2.4 23 11.0 ESE 15 20 8 11 1021.5 1020.3 0.0
30/06:30pm 25.6 20.7 2.3 22 11.5 ESE 17 19 9 10 1020.9 1019.8 0.0
30/06:00pm 26.6 21.4 2.5 21 12.0 E 19 26 10 14 1020.5 1019.3 0.0
30/05:30pm 27.4 21.9 1.8 19 12.7 ESE 20 28 11 15 1020.1 1018.9 0.0
30/05:00pm 28.3 23.6 0.9 17 13.4 ESE 15 20 8 11 1019.8 1018.6 0.0
30/04:30pm 28.4 23.5 1.8 18 13.3 E 17 22 9 12 1019.6 1018.4 0.0
30/04:00pm 28.8 25.7 1.3 17 13.6 SE 7 13 4 7 1019.5 1018.3 0.0
30/03:30pm 28.7 23.9 0.4 16 13.8 SE 15 19 8 10 1019.4 1018.2 0.0
30/03:00pm 28.5 23.3 0.3 16 13.7 SSE 17 33 9 18 1019.4 1018.2 0.0
30/02:30pm 28.0 23.4 1.5 18 13.1 SE 15 24 8 13 1019.4 1018.2 0.0
30/02:00pm 28.2 24.5 2.4 19 12.9 E 11 24 6 13 1019.5 1018.3 0.0
30/01:30pm 28.3 24.4 3.2 20 12.8 E 13 28 7 15 1019.8 1018.6 0.0
30/01:00pm 27.4 22.8 3.8 22 12.1 SE 17 28 9 15 1020.1 1018.9 0.0
30/12:30pm 26.1 22.3 4.0 24 11.3 SE 13 24 7 13 1020.5 1019.3 0.0
30/12:00pm 26.3 23.7 4.1 24 11.3 WNW 7 24 4 13 1020.9 1019.8 0.0
30/11:30am 24.9 20.8 4.1 26 10.6 NE 15 26 8 14 1021.4 1020.2 0.0
30/11:00am 25.8 21.9 5.4 27 10.6 ESE 15 28 8 15 1021.7 1020.5 0.0
30/10:30am 24.9 20.1 5.7 29 10.0 ESE 20 30 11 16 1022.0 1020.8 0.0
30/10:00am 23.4 17.8 5.3 31 9.3 ESE 24 35 13 19 1022.3 1021.1 0.0
30/09:30am 23.1 17.5 5.5 32 9.1 E 24 35 13 19 1022.3 1021.1 0.0
30/09:00am 22.3 16.4 5.7 34 8.5 E 26 35 14 19 1022.3 1021.1 0.0
30/08:30am 21.5 15.2 5.8 36 8.0 ESE 28 39 15 21 1022.2 1021.0 0.0
30/08:00am 20.7 14.4 5.9 38 7.5 ESE 28 35 15 19 1022.0 1020.8 0.0
30/07:30am 19.4 13.1 5.8 41 6.9 ESE 28 37 15 20 1021.7 1020.5 0.0
30/07:00am 18.1 12.5 5.3 43 6.3 ESE 24 32 13 17 1021.5 1020.3 0.0
30/06:30am 17.1 12.8 5.4 46 5.8 ESE 17 24 9 13 1021.4 1020.2 0.0
30/06:00am 15.7 12.2 5.3 50 5.1 ESE 13 19 7 10 1021.2 1020.0 0.0
30/05:30am 15.2 10.9 5.1 51 4.9 ESE 17 22 9 12 1020.7 1019.6 0.0
30/05:00am 14.0 10.6 4.0 51 4.7 SE 11 13 6 7 1020.4 1019.2 0.0
30/04:30am 14.3 10.7 3.2 47 5.1 SE 11 15 6 8 1020.0 1018.8 0.0
30/04:00am 15.4 11.1 3.5 45 5.6 SSE 15 17 8 9 1019.8 1018.6 0.0
30/03:30am 15.3 10.2 2.8 43 5.8 SSE 19 22 10 12 1019.5 1018.3 0.0
30/03:00am 15.6 11.5 2.4 41 6.0 S 13 17 7 9 1019.4 1018.2 0.0
30/02:30am 16.2 12.1 2.2 39 6.4 SSE 13 17 7 9 1019.2 1018.0 0.0
30/02:00am 16.5 12.3 1.8 37 6.7 SSE 13 17 7 9 1019.1 1017.9 0.0
30/01:30am 16.8 12.6 1.7 36 6.9 SSE 13 17 7 9 1019.0 1017.8 0.0
30/01:00am 17.8 13.2 1.7 34 7.4 SSE 15 17 8 9 1018.9 1017.7 0.0
30/12:30am 18.9 13.9 1.4 31 8.1 S 17 20 9 11 1018.9 1017.7 0.0
30/12:00am 19.7 14.3 1.2 29 8.5 S 19 22 10 12 1018.8 1017.6 0.0
 
Date/Time
WST
Temp
°C
App
Temp
°C
Dew
Point
Rel
Hum
%
Delta-T
°C
Wind Press
QNH
hPa
Press
MSL
hPa
Rain
since 9 am
mm
Dir
 
Spd
km/h
Gust
km/h
Spd
kts
Gust
kts
29/11:30pm 15.8 11.9 -1.7 30 7.4 S 9 11 5 6 1018.8 1017.6 0.0
29/11:00pm 17.1 13.6 -1.5 28 7.9 SSW 7 9 4 5 1018.8 1017.6 0.0
29/10:30pm 18.4 14.6 -0.9 27 8.5 SSW 9 9 5 5 1018.8 1017.6 0.0
29/10:00pm 19.7 16.0 -0.3 26 9.0 SSW 9 13 5 7 1018.9 1017.7 0.0
29/09:30pm 19.3 15.9 -0.7 26 8.9 SW 7 13 4 7 1018.9 1017.7 0.0
29/09:00pm 17.5 15.2 -2.2 26 8.3 CALM 0 4 0 2 1018.6 1017.4 0.0
29/08:30pm 20.7 16.8 -1.8 22 9.9 WSW 9 9 5 5 1018.4 1017.2 0.0

Other Formats:

Comma delimited format used in spreadsheet applications
http://www.bom.gov.au/fwo/IDW60801/IDW60801.94449.axf

JavaScript Object Notation format (JSON) in row-major order
http://www.bom.gov.au/fwo/IDW60801/IDW60801.94449.json